Time;durP1;ratioP1;P1;durP2;ratioP2;P2;SDS_P1;SDS_P2;PMS_P1;PMS_P2;Temp;Humidity;BMP_temperature;BMP_pressure;BME280_temperature;BME280_humidity;BME280_pressure;Samples;Min_cycle;Max_cycle;Signal;HPM_P1;HPM_P2
2021/07/17 00:00:43;;;;;;;14.40;5.30;;;17.60;99.70;;;;;;5049392;28;20447;-65
2021/07/17 00:03:11;;;;;;;11.03;4.60;;;17.60;99.70;;;;;;5048944;28;20460;-67
2021/07/17 00:05:38;;;;;;;14.70;5.63;;;17.60;99.70;;;;;;5049448;28;20451;-66
2021/07/17 00:08:06;;;;;;;14.70;5.67;;;17.60;99.70;;;;;;5048683;28;20475;-67
2021/07/17 00:10:37;;;;;;;10.23;4.97;;;17.60;99.70;;;;;;5049220;28;20447;-66
2021/07/17 00:13:06;;;;;;;17.20;5.20;;;17.60;99.70;;;;;;5030969;28;20453;-66
2021/07/17 00:15:33;;;;;;;11.13;4.70;;;17.50;99.70;;;;;;5028720;28;20876;-66
2021/07/17 00:18:00;;;;;;;15.47;5.00;;;17.50;99.70;;;;;;5031369;28;20900;-66
2021/07/17 00:20:28;;;;;;;15.83;5.67;;;17.40;99.70;;;;;;5032513;28;20453;-67
2021/07/17 00:22:55;;;;;;;14.67;6.33;;;17.40;99.70;;;;;;5049651;28;20447;-66
2021/07/17 00:25:22;;;;;;;16.53;6.23;;;17.40;99.70;;;;;;5052360;28;20439;-66
2021/07/17 00:27:49;;;;;;;18.00;6.27;;;17.40;99.70;;;;;;5053005;28;20468;-66
2021/07/17 00:30:17;;;;;;;14.50;5.60;;;17.40;99.70;;;;;;5052388;28;20883;-66
2021/07/17 00:32:46;;;;;;;15.23;5.37;;;17.50;99.70;;;;;;5036972;28;20448;-66
2021/07/17 00:35:13;;;;;;;12.87;5.50;;;17.50;99.70;;;;;;5032745;28;20853;-66
2021/07/17 00:37:41;;;;;;;15.33;6.20;;;17.50;99.70;;;;;;5052344;28;20470;-66
2021/07/17 00:40:10;;;;;;;8.67;4.00;;;17.50;99.70;;;;;;5052532;28;20796;-67
2021/07/17 00:42:39;;;;;;;13.90;5.67;;;17.50;99.70;;;;;;5051773;28;20452;-66
2021/07/17 00:45:06;;;;;;;14.10;5.00;;;17.40;99.70;;;;;;5052203;28;20992;-66
2021/07/17 00:47:35;;;;;;;21.13;6.10;;;17.40;99.70;;;;;;5052474;28;20443;-66
2021/07/17 00:50:02;;;;;;;11.40;5.40;;;17.40;99.70;;;;;;5052061;28;20814;-66
2021/07/17 00:52:29;;;;;;;13.30;5.10;;;17.50;99.70;;;;;;5039687;28;20943;-66
2021/07/17 00:54:58;;;;;;;15.37;5.50;;;17.40;99.70;;;;;;5031582;28;20476;-66
2021/07/17 00:57:27;;;;;;;11.57;5.00;;;17.40;99.70;;;;;;5032209;28;20449;-67
2021/07/17 00:59:58;;;;;;;12.70;5.23;;;17.40;99.70;;;;;;5031766;28;20444;-66
2021/07/17 01:02:25;;;;;;;11.77;5.20;;;17.40;99.70;;;;;;5043877;28;20451;-66
2021/07/17 01:04:53;;;;;;;12.07;5.57;;;17.40;99.70;;;;;;5051551;28;20444;-66
2021/07/17 01:07:20;;;;;;;11.37;5.40;;;17.40;99.70;;;;;;5051112;28;20873;-67
2021/07/17 01:09:46;;;;;;;9.73;5.13;;;17.50;99.70;;;;;;5052241;28;20444;-66
2021/07/17 01:12:14;;;;;;;13.97;5.73;;;17.40;99.70;;;;;;5041403;28;20475;-66
2021/07/17 01:14:41;;;;;;;12.43;5.97;;;17.40;99.70;;;;;;5031844;28;20534;-67
2021/07/17 01:17:08;;;;;;;10.50;5.13;;;17.40;99.70;;;;;;5031717;28;20797;-66
2021/07/17 01:19:34;;;;;;;15.57;5.20;;;17.40;99.70;;;;;;5031626;28;20461;-67
2021/07/17 01:22:03;;;;;;;10.97;4.93;;;17.40;99.70;;;;;;5039669;28;20456;-67
2021/07/17 01:24:30;;;;;;;13.97;5.20;;;17.40;99.70;;;;;;5051568;28;20586;-67
2021/07/17 01:26:57;;;;;;;18.03;6.23;;;17.30;99.70;;;;;;5051763;28;20444;-66
2021/07/17 01:29:24;;;;;;;10.83;4.47;;;17.30;99.70;;;;;;5051440;28;20464;-66
2021/07/17 01:31:51;;;;;;;20.10;5.77;;;17.30;99.70;;;;;;5045374;28;20452;-67
2021/07/17 01:34:18;;;;;;;17.10;6.80;;;17.30;99.70;;;;;;5031381;28;20482;-67
2021/07/17 01:36:46;;;;;;;11.83;5.10;;;17.40;99.70;;;;;;5044613;28;20915;-67
2021/07/17 01:39:14;;;;;;;13.50;5.70;;;17.40;99.70;;;;;;5051190;28;20498;-66
2021/07/17 01:41:41;;;;;;;13.63;5.37;;;17.40;99.70;;;;;;5050862;28;20444;-67
2021/07/17 01:44:08;;;;;;;15.43;5.10;;;17.30;99.70;;;;;;5050709;28;20601;-65
2021/07/17 01:46:35;;;;;;;14.60;5.73;;;17.30;99.70;;;;;;5051180;28;20475;-66
2021/07/17 01:49:02;;;;;;;11.17;4.47;;;17.30;99.70;;;;;;5051349;28;20468;-67
2021/07/17 01:51:28;;;;;;;12.60;5.23;;;17.30;99.70;;;;;;5037537;28;20448;-66
2021/07/17 01:53:57;;;;;;;13.60;5.07;;;17.30;99.70;;;;;;5031198;28;20499;-66
2021/07/17 01:56:26;;;;;;;12.93;4.80;;;17.30;99.70;;;;;;5030606;28;20484;-67
2021/07/17 01:58:53;;;;;;;11.20;4.90;;;17.30;99.70;;;;;;5030926;28;20476;-66
2021/07/17 02:01:22;;;;;;;15.90;5.90;;;17.20;99.70;;;;;;5042678;28;20954;-66
2021/07/17 02:03:49;;;;;;;14.00;5.47;;;17.20;99.70;;;;;;5050918;28;20444;-64
2021/07/17 02:06:22;;;;;;;11.97;5.63;;;17.20;99.70;;;;;;5050660;28;20440;-66
2021/07/17 02:08:49;;;;;;;10.27;4.53;;;17.20;99.70;;;;;;5049959;28;20463;-66
2021/07/17 02:11:16;;;;;;;12.53;5.60;;;17.20;99.70;;;;;;5039659;28;20476;-66
2021/07/17 02:13:44;;;;;;;20.33;5.80;;;17.20;99.70;;;;;;5030882;28;20445;-67
2021/07/17 02:16:10;;;;;;;19.30;6.50;;;17.20;99.70;;;;;;5030532;28;21035;-67
2021/07/17 02:18:37;;;;;;;12.57;5.50;;;17.20;99.70;;;;;;5030645;28;20523;-66
2021/07/17 02:21:06;;;;;;;14.37;6.20;;;17.20;99.70;;;;;;5039988;28;20452;-66
2021/07/17 02:23:34;;;;;;;13.20;4.90;;;17.20;99.70;;;;;;5050500;28;20452;-67
2021/07/17 02:26:00;;;;;;;11.60;5.30;;;17.20;99.70;;;;;;5050273;28;20455;-66
2021/07/17 02:28:27;;;;;;;11.13;4.60;;;17.20;99.70;;;;;;5050584;28;20471;-67
2021/07/17 02:30:55;;;;;;;17.20;5.40;;;17.20;99.70;;;;;;5042322;28;20959;-66
2021/07/17 02:33:22;;;;;;;15.73;5.60;;;17.20;99.70;;;;;;5030851;28;20447;-66
2021/07/17 02:35:49;;;;;;;14.80;5.60;;;17.20;99.70;;;;;;5035497;28;20893;-67
2021/07/17 02:38:17;;;;;;;13.80;5.10;;;17.20;99.70;;;;;;5050342;28;20471;-65
2021/07/17 02:40:43;;;;;;;15.07;5.83;;;17.20;99.70;;;;;;5049025;28;20444;-67
2021/07/17 02:43:10;;;;;;;9.27;4.70;;;17.20;99.70;;;;;;5031237;28;20956;-66
2021/07/17 02:45:37;;;;;;;13.43;5.40;;;17.20;99.70;;;;;;5030249;28;20834;-66
2021/07/17 02:48:06;;;;;;;17.83;5.80;;;17.10;99.70;;;;;;5029912;28;20526;-67
2021/07/17 02:50:33;;;;;;;12.33;5.53;;;17.10;99.70;;;;;;5034892;28;20451;-66
2021/07/17 02:52:59;;;;;;;12.87;4.97;;;17.10;99.70;;;;;;5049935;28;20448;-66
2021/07/17 02:55:26;;;;;;;15.37;4.13;;;17.10;99.70;;;;;;5049902;28;20475;-67
2021/07/17 02:57:53;;;;;;;10.40;4.33;;;17.10;99.70;;;;;;5049753;28;20484;-66
2021/07/17 03:00:19;;;;;;;13.67;5.00;;;17.20;99.70;;;;;;5047275;28;20448;-66
2021/07/17 03:02:46;;;;;;;15.03;5.90;;;17.10;99.70;;;;;;5029588;28;20445;-67
2021/07/17 03:05:15;;;;;;;10.70;4.50;;;17.10;99.70;;;;;;5029797;28;20459;-66
2021/07/17 03:07:41;;;;;;;16.10;5.03;;;17.10;99.70;;;;;;5029353;28;20522;-66
2021/07/17 03:10:09;;;;;;;14.27;4.73;;;17.10;99.70;;;;;;5030915;28;20510;-67
2021/07/17 03:12:36;;;;;;;14.10;5.30;;;17.10;99.70;;;;;;5049835;28;20518;-67
2021/07/17 03:15:04;;;;;;;10.77;5.07;;;17.10;99.70;;;;;;5049223;28;20915;-66
2021/07/17 03:17:30;;;;;;;12.23;4.90;;;17.00;99.70;;;;;;5050136;28;20440;-66
2021/07/17 03:19:57;;;;;;;11.70;6.20;;;17.00;99.70;;;;;;5049663;28;20447;-66
2021/07/17 03:22:25;;;;;;;11.93;4.90;;;17.10;99.70;;;;;;5030385;28;20452;-66
2021/07/17 03:24:52;;;;;;;13.33;5.27;;;17.10;99.70;;;;;;5029325;28;20876;-66
2021/07/17 03:27:19;;;;;;;16.17;6.50;;;17.10;99.70;;;;;;5030036;28;20443;-66
2021/07/17 03:29:47;;;;;;;15.03;4.87;;;17.00;99.70;;;;;;5029690;28;20449;-66
2021/07/17 03:32:13;;;;;;;16.03;5.90;;;17.00;99.70;;;;;;5046526;28;20483;-67
2021/07/17 03:34:41;;;;;;;12.40;5.93;;;17.10;99.70;;;;;;5049115;28;20443;-67
2021/07/17 03:37:07;;;;;;;14.03;5.83;;;17.10;99.70;;;;;;5049595;28;20601;-66
2021/07/17 03:39:35;;;;;;;13.97;5.27;;;17.00;99.70;;;;;;5049799;28;20470;-66
2021/07/17 03:42:02;;;;;;;13.60;5.30;;;17.10;99.70;;;;;;5048701;28;20454;-66
2021/07/17 03:44:30;;;;;;;13.93;6.60;;;17.00;99.70;;;;;;5049260;28;20458;-66
2021/07/17 03:46:57;;;;;;;15.63;6.50;;;17.00;99.70;;;;;;5049435;28;20443;-66
2021/07/17 03:49:23;;;;;;;13.67;5.67;;;17.00;99.70;;;;;;5049540;28;20500;-66
2021/07/17 03:51:50;;;;;;;10.87;4.83;;;17.00;99.70;;;;;;5046335;28;20776;-66
2021/07/17 03:54:17;;;;;;;11.30;5.30;;;17.00;99.70;;;;;;5052832;28;20447;-66
2021/07/17 03:56:45;;;;;;;13.70;5.70;;;17.10;99.70;;;;;;5053725;28;20479;-67
2021/07/17 03:59:11;;;;;;;13.93;5.23;;;17.10;99.70;;;;;;5052798;28;20480;-67
2021/07/17 04:01:38;;;;;;;12.23;5.00;;;17.10;99.70;;;;;;5044830;28;20477;-66
2021/07/17 04:04:07;;;;;;;11.67;4.87;;;17.10;99.70;;;;;;5032977;28;20510;-66
2021/07/17 04:06:35;;;;;;;13.73;5.30;;;17.00;99.70;;;;;;5033354;28;20448;-66
2021/07/17 04:09:02;;;;;;;14.33;5.80;;;17.00;99.70;;;;;;5032015;28;20499;-66
2021/07/17 04:11:29;;;;;;;16.70;5.13;;;17.00;99.70;;;;;;5039660;28;20444;-67
2021/07/17 04:13:57;;;;;;;11.07;5.10;;;17.10;99.70;;;;;;5052624;28;20452;-66
2021/07/17 04:16:24;;;;;;;21.33;5.40;;;17.00;99.70;;;;;;5052614;28;20486;-66
2021/07/17 04:18:50;;;;;;;12.13;4.70;;;17.00;99.70;;;;;;5052839;28;20517;-67
2021/07/17 04:21:17;;;;;;;13.83;5.17;;;17.00;99.70;;;;;;5047535;28;21005;-66
2021/07/17 04:23:44;;;;;;;14.90;6.13;;;17.00;99.70;;;;;;5033444;28;21183;-66
2021/07/17 04:26:10;;;;;;;15.40;5.40;;;17.00;99.70;;;;;;5080131;22;20529;-68
2021/07/17 04:28:37;;;;;;;13.50;5.43;;;17.00;99.70;;;;;;5052875;28;20435;-68
2021/07/17 04:31:06;;;;;;;11.07;4.57;;;17.00;99.70;;;;;;5052223;28;20455;-68
2021/07/17 04:33:32;;;;;;;13.37;6.40;;;17.00;99.70;;;;;;5052409;28;20452;-68
2021/07/17 04:35:59;;;;;;;12.87;5.27;;;17.00;99.70;;;;;;5052124;28;20487;-68
2021/07/17 04:38:26;;;;;;;12.77;4.60;;;17.00;99.70;;;;;;5052464;28;20943;-68
2021/07/17 04:40:52;;;;;;;11.20;4.80;;;17.10;99.70;;;;;;5052532;28;20853;-68
2021/07/17 04:43:19;;;;;;;14.57;5.43;;;17.10;99.70;;;;;;5051864;28;20447;-68
2021/07/17 04:45:46;;;;;;;13.83;5.07;;;17.00;99.70;;;;;;5052241;28;20517;-68
2021/07/17 04:48:14;;;;;;;13.77;4.27;;;17.00;99.70;;;;;;5052378;28;20474;-68
2021/07/17 04:50:41;;;;;;;14.67;4.97;;;17.00;99.70;;;;;;5052807;28;20513;-68
2021/07/17 04:53:07;;;;;;;12.83;5.17;;;17.00;99.70;;;;;;5052048;28;20447;-68
2021/07/17 04:55:34;;;;;;;15.47;5.40;;;17.00;99.70;;;;;;5051763;28;20981;-68
2021/07/17 04:58:01;;;;;;;12.80;6.03;;;16.90;99.70;;;;;;5052286;28;20448;-69
2021/07/17 05:00:28;;;;;;;13.60;5.17;;;16.90;99.70;;;;;;5052016;28;20448;-68
2021/07/17 05:02:56;;;;;;;15.50;5.87;;;16.90;99.70;;;;;;5051462;28;20448;-68
2021/07/17 05:05:25;;;;;;;11.70;5.73;;;17.00;99.70;;;;;;5051750;28;20451;-68
2021/07/17 05:07:53;;;;;;;13.50;5.33;;;17.00;99.70;;;;;;5051672;28;20447;-68
2021/07/17 05:10:24;;;;;;;9.77;4.50;;;17.00;99.70;;;;;;5051813;28;20934;-68
2021/07/17 05:12:51;;;;;;;16.67;5.77;;;17.10;99.70;;;;;;5052135;28;20949;-68
2021/07/17 05:15:19;;;;;;;11.70;5.27;;;17.00;99.70;;;;;;5051379;28;20451;-68
2021/07/17 05:17:46;;;;;;;14.47;5.60;;;17.00;99.70;;;;;;5052039;28;20487;-68
2021/07/17 05:20:13;;;;;;;15.77;5.60;;;17.00;99.70;;;;;;5051976;28;20931;-68
2021/07/17 05:22:42;;;;;;;29.87;5.97;;;17.00;99.70;;;;;;5051045;28;20467;-68
2021/07/17 05:25:09;;;;;;;13.30;4.97;;;17.10;99.70;;;;;;5051559;28;20455;-68
2021/07/17 05:27:36;;;;;;;10.10;4.03;;;17.10;99.70;;;;;;5051398;28;20490;-68
2021/07/17 05:30:04;;;;;;;14.03;5.33;;;17.00;99.70;;;;;;5051733;28;20446;-68
2021/07/17 05:32:30;;;;;;;15.30;5.60;;;17.10;99.70;;;;;;5051098;28;20452;-68
2021/07/17 05:34:57;;;;;;;12.53;4.53;;;17.10;99.70;;;;;;5051235;28;20439;-68
2021/07/17 05:37:25;;;;;;;11.93;4.60;;;17.10;99.70;;;;;;5051255;28;20491;-68
2021/07/17 05:39:53;;;;;;;16.63;6.37;;;17.10;99.70;;;;;;5051568;28;20459;-68
2021/07/17 05:42:20;;;;;;;13.10;5.00;;;17.00;99.70;;;;;;5051158;28;20451;-68
2021/07/17 05:44:48;;;;;;;11.10;5.40;;;17.10;99.70;;;;;;5051158;28;20447;-68
2021/07/17 05:47:15;;;;;;;14.67;5.20;;;17.10;99.70;;;;;;5051454;28;20521;-68
2021/07/17 05:49:41;;;;;;;12.17;5.43;;;17.10;99.70;;;;;;5051026;28;20448;-68
2021/07/17 05:52:08;;;;;;;14.33;5.40;;;17.10;99.70;;;;;;5051289;28;20534;-68
2021/07/17 05:54:35;;;;;;;17.90;6.30;;;17.10;99.70;;;;;;5050603;28;20454;-69
2021/07/17 05:57:04;;;;;;;11.80;6.10;;;17.10;99.70;;;;;;5051172;28;20483;-69
2021/07/17 05:59:30;;;;;;;17.43;5.37;;;17.10;99.70;;;;;;5050852;28;20444;-68
2021/07/17 06:01:57;;;;;;;11.50;5.17;;;17.20;99.70;;;;;;5050649;28;20444;-68
2021/07/17 06:04:24;;;;;;;15.87;5.93;;;17.20;99.70;;;;;;5050983;28;20448;-68
2021/07/17 06:06:51;;;;;;;14.27;5.50;;;17.20;99.70;;;;;;5051425;28;20463;-67
2021/07/17 06:09:17;;;;;;;12.33;5.40;;;17.20;99.70;;;;;;5050436;28;20448;-68
2021/07/17 06:11:44;;;;;;;12.20;5.53;;;17.30;99.70;;;;;;5050662;28;20444;-68
2021/07/17 06:14:12;;;;;;;10.60;4.57;;;17.30;99.70;;;;;;5050342;28;21110;-67
2021/07/17 06:16:39;;;;;;;12.00;4.63;;;17.30;99.70;;;;;;5050520;28;20515;-68
2021/07/17 06:19:06;;;;;;;16.23;6.07;;;17.30;99.70;;;;;;5050827;28;20505;-68
2021/07/17 06:21:33;;;;;;;13.40;6.03;;;17.30;99.70;;;;;;5050686;28;20935;-68
2021/07/17 06:24:00;;;;;;;14.53;5.03;;;17.30;99.70;;;;;;5050298;28;20546;-68
2021/07/17 06:26:27;;;;;;;16.10;6.20;;;17.40;99.70;;;;;;5050444;28;20476;-68
2021/07/17 06:28:54;;;;;;;14.17;5.00;;;17.30;99.70;;;;;;5050548;28;20556;-68
2021/07/17 06:31:22;;;;;;;10.00;3.90;;;17.30;99.70;;;;;;5050539;28;20444;-69
2021/07/17 06:33:49;;;;;;;13.87;5.10;;;17.40;99.70;;;;;;5050561;28;20451;-68
2021/07/17 06:36:16;;;;;;;14.30;5.17;;;17.40;99.70;;;;;;5050281;28;20479;-69
2021/07/17 06:38:43;;;;;;;14.60;4.77;;;17.40;99.70;;;;;;5050277;28;20513;-68
2021/07/17 06:41:09;;;;;;;15.17;4.87;;;17.50;99.70;;;;;;5050218;28;20448;-68
2021/07/17 06:43:36;;;;;;;9.77;4.33;;;17.60;99.70;;;;;;5050538;28;20452;-67
2021/07/17 06:46:03;;;;;;;16.23;5.97;;;17.60;99.70;;;;;;5050091;28;20997;-68
2021/07/17 06:48:31;;;;;;;15.50;5.00;;;17.60;99.70;;;;;;5050546;28;20924;-67
2021/07/17 06:50:58;;;;;;;13.60;5.50;;;17.50;99.70;;;;;;5049878;28;20469;-69
2021/07/17 06:53:25;;;;;;;12.23;5.27;;;17.60;99.70;;;;;;5050440;28;20448;-68
2021/07/17 06:55:52;;;;;;;9.33;5.37;;;17.60;99.70;;;;;;5045808;28;20459;-67
2021/07/17 06:58:19;;;;;;;9.90;4.90;;;17.60;99.70;;;;;;5051660;28;20482;-68
2021/07/17 07:00:45;;;;;;;19.90;6.73;;;17.60;99.70;;;;;;5047390;28;20443;-69
2021/07/17 07:03:12;;;;;;;11.67;5.20;;;17.60;99.70;;;;;;5050040;28;20844;-68
2021/07/17 07:05:40;;;;;;;27.50;6.60;;;17.60;99.70;;;;;;5049552;28;20464;-68
2021/07/17 07:08:07;;;;;;;11.43;4.73;;;17.60;99.70;;;;;;5049305;28;20443;-68
2021/07/17 07:10:34;;;;;;;14.40;4.83;;;17.60;99.70;;;;;;5049604;28;20443;-68
2021/07/17 07:13:08;;;;;;;13.90;5.40;;;17.60;99.70;;;;;;5050097;28;20456;-68
2021/07/17 07:15:35;;;;;;;14.40;5.93;;;17.70;99.70;;;;;;5049270;28;20497;-69
2021/07/17 07:18:02;;;;;;;12.50;5.70;;;17.70;99.70;;;;;;5047305;28;20502;-69
2021/07/17 07:20:28;;;;;;;13.80;4.47;;;17.70;99.70;;;;;;5047299;28;20470;-68
2021/07/17 07:22:56;;;;;;;9.80;4.73;;;17.80;99.70;;;;;;5049362;28;20454;-68
2021/07/17 07:25:23;;;;;;;12.87;5.23;;;17.80;99.70;;;;;;5049270;28;20456;-68
2021/07/17 07:27:50;;;;;;;13.47;5.17;;;17.80;99.70;;;;;;5051742;28;20938;-69
2021/07/17 07:30:17;;;;;;;13.03;5.23;;;17.80;99.70;;;;;;5053595;28;20451;-68
2021/07/17 07:32:44;;;;;;;12.83;5.23;;;17.90;99.70;;;;;;5053732;28;20821;-69
2021/07/17 07:35:11;;;;;;;13.17;5.70;;;17.90;99.70;;;;;;5053275;28;20455;-68
2021/07/17 07:37:39;;;;;;;15.03;5.67;;;17.90;99.70;;;;;;5053570;28;20912;-69
2021/07/17 07:40:08;;;;;;;13.13;5.50;;;18.00;99.70;;;;;;5053480;28;20463;-68
2021/07/17 07:42:35;;;;;;;12.67;5.53;;;18.10;99.70;;;;;;5053446;28;20984;-68
2021/07/17 07:45:01;;;;;;;11.60;4.47;;;18.10;99.70;;;;;;5053046;28;20455;-68
2021/07/17 07:47:28;;;;;;;9.67;4.40;;;18.10;99.70;;;;;;5053747;28;20838;-69
2021/07/17 07:49:56;;;;;;;13.77;5.87;;;18.00;99.70;;;;;;5053497;28;20459;-69
2021/07/17 07:52:23;;;;;;;10.30;4.93;;;18.00;99.70;;;;;;5052709;28;20446;-68
2021/07/17 07:54:51;;;;;;;14.90;4.93;;;18.00;99.70;;;;;;5053001;28;20955;-68
2021/07/17 07:57:19;;;;;;;9.50;4.80;;;18.00;99.70;;;;;;5052917;28;20545;-68
2021/07/17 07:59:46;;;;;;;11.30;4.80;;;18.10;99.70;;;;;;5053468;28;20470;-68
2021/07/17 08:02:13;;;;;;;13.63;5.00;;;18.10;99.70;;;;;;5052806;28;20450;-69
2021/07/17 08:04:41;;;;;;;10.60;5.30;;;18.10;99.70;;;;;;5052673;28;20627;-68
2021/07/17 08:07:08;;;;;;;8.93;5.40;;;18.10;99.70;;;;;;5052887;28;20455;-68
2021/07/17 08:09:35;;;;;;;8.10;3.93;;;18.10;99.70;;;;;;5052433;28;20451;-68
2021/07/17 08:12:02;;;;;;;13.47;5.40;;;18.00;99.70;;;;;;5053083;28;20817;-69
2021/07/17 08:14:30;;;;;;;15.10;5.30;;;17.90;99.70;;;;;;5051886;28;20875;-68
2021/07/17 08:16:56;;;;;;;10.30;4.50;;;17.90;99.70;;;;;;5052506;28;20533;-68
2021/07/17 08:19:25;;;;;;;12.77;5.70;;;17.90;99.70;;;;;;5052640;28;20448;-69
2021/07/17 08:21:52;;;;;;;11.77;5.03;;;17.80;99.70;;;;;;5032876;28;20441;-68
2021/07/17 08:24:18;;;;;;;11.17;4.93;;;17.80;99.70;;;;;;5040784;28;20443;-68
2021/07/17 08:26:45;;;;;;;10.53;4.90;;;17.80;99.70;;;;;;5052792;28;20529;-68
2021/07/17 08:29:12;;;;;;;14.83;6.20;;;17.80;99.70;;;;;;5052463;28;20871;-68
2021/07/17 08:31:40;;;;;;;14.43;5.87;;;17.80;99.70;;;;;;5052858;28;20965;-68
2021/07/17 08:34:07;;;;;;;14.03;5.67;;;17.90;99.70;;;;;;5052112;28;20448;-68
2021/07/17 08:36:34;;;;;;;14.13;5.60;;;17.90;99.70;;;;;;5047666;28;20463;-68
2021/07/17 08:39:01;;;;;;;12.47;5.77;;;17.90;99.70;;;;;;5067502;28;20443;-69
2021/07/17 08:41:29;;;;;;;12.67;5.00;;;18.10;99.70;;;;;;5069906;28;20450;-68
2021/07/17 08:43:57;;;;;;;11.77;6.00;;;18.00;99.70;;;;;;5048590;28;20455;-68
2021/07/17 08:46:24;;;;;;;13.77;5.87;;;18.00;99.70;;;;;;5051040;28;20478;-68
2021/07/17 08:48:55;;;;;;;12.53;5.00;;;18.10;99.70;;;;;;5061698;28;20772;-68
2021/07/17 08:51:23;;;;;;;17.77;5.70;;;18.10;99.70;;;;;;5051785;28;20501;-68
2021/07/17 08:53:50;;;;;;;12.63;5.27;;;18.10;99.70;;;;;;5052045;28;20566;-68
2021/07/17 08:56:17;;;;;;;11.73;4.50;;;18.10;99.70;;;;;;5051399;28;21006;-68
2021/07/17 08:58:44;;;;;;;15.33;5.50;;;18.10;99.70;;;;;;5051880;28;20479;-68
2021/07/17 09:01:14;;;;;;;14.47;5.10;;;18.20;99.70;;;;;;5051443;28;20493;-68
2021/07/17 09:03:41;;;;;;;15.10;5.57;;;18.30;99.70;;;;;;5032478;28;20456;-69
2021/07/17 09:06:09;;;;;;;16.83;6.10;;;18.30;99.70;;;;;;5040707;28;20498;-68
2021/07/17 09:08:36;;;;;;;20.07;5.90;;;18.40;99.70;;;;;;5051273;28;20451;-68
2021/07/17 09:11:03;;;;;;;13.17;5.80;;;18.60;99.70;;;;;;5052145;28;20473;-69
2021/07/17 09:13:31;;;;;;;11.30;4.87;;;18.70;99.70;;;;;;5051004;28;20530;-69
2021/07/17 09:16:01;;;;;;;11.43;5.17;;;18.80;99.70;;;;;;5050785;28;20794;-69
2021/07/17 09:18:31;;;;;;;13.67;5.13;;;18.70;99.70;;;;;;5056073;28;20489;-69
2021/07/17 09:20:59;;;;;;;11.67;4.50;;;18.60;99.70;;;;;;5053460;28;20597;-69
2021/07/17 09:23:31;;;;;;;14.70;5.40;;;18.60;99.70;;;;;;5056803;28;20443;-69
2021/07/17 09:26:01;;;;;;;12.77;5.00;;;18.60;99.70;;;;;;5051405;28;21205;-68
2021/07/17 09:28:29;;;;;;;13.77;6.27;;;18.70;99.70;;;;;;5051440;28;20447;-68
2021/07/17 09:30:58;;;;;;;14.17;5.37;;;18.70;99.70;;;;;;5054114;28;20896;-68
2021/07/17 09:33:26;;;;;;;12.70;6.30;;;18.70;99.70;;;;;;5051021;28;20454;-68
2021/07/17 09:35:54;;;;;;;13.07;5.90;;;18.70;99.70;;;;;;5049664;28;20497;-69
2021/07/17 09:38:23;;;;;;;16.33;5.50;;;18.70;99.70;;;;;;5030652;28;20575;-69
2021/07/17 09:40:53;;;;;;;13.17;5.60;;;18.70;99.70;;;;;;5046279;28;20844;-68
2021/07/17 09:43:31;;;;;;;14.30;5.70;;;18.70;99.70;;;;;;5050370;28;20931;-68
2021/07/17 09:45:59;;;;;;;14.80;5.57;;;18.70;99.70;;;;;;5056939;28;20458;-69
2021/07/17 09:48:27;;;;;;;10.37;4.37;;;18.70;99.70;;;;;;5060225;28;20440;-68
2021/07/17 09:50:57;;;;;;;12.43;4.90;;;18.70;99.70;;;;;;5057914;28;20435;-69
2021/07/17 09:53:41;;;;;;;9.73;4.83;;;18.60;99.70;;;;;;5061137;28;20463;-68
2021/07/17 09:56:11;;;;;;;14.77;5.53;;;18.60;99.70;;;;;;5058219;28;20463;-69
2021/07/17 09:58:39;;;;;;;14.43;5.37;;;18.60;99.70;;;;;;5058417;28;20483;-68
2021/07/17 10:01:23;;;;;;;10.93;5.57;;;18.50;99.70;;;;;;5058003;28;20484;-68
2021/07/17 10:03:51;;;;;;;15.43;5.40;;;18.50;99.70;;;;;;5050038;28;20973;-69
2021/07/17 10:06:30;;;;;;;11.80;4.90;;;18.60;99.70;;;;;;5057545;28;20466;-69
2021/07/17 10:08:57;;;;;;;11.63;6.00;;;18.50;99.70;;;;;;5058356;28;20436;-69
2021/07/17 10:11:27;;;;;;;14.43;5.97;;;18.60;99.70;;;;;;5060771;28;20807;-69
2021/07/17 10:13:55;;;;;;;13.10;6.00;;;18.60;99.70;;;;;;5054392;28;20470;-69
2021/07/17 10:16:26;;;;;;;15.93;5.87;;;18.70;99.70;;;;;;5060033;28;20467;-69
2021/07/17 10:18:54;;;;;;;14.10;5.40;;;18.80;99.70;;;;;;5058942;28;20852;-69
2021/07/17 10:21:21;;;;;;;11.33;5.70;;;18.90;99.70;;;;;;5057632;28;20446;-69
2021/07/17 10:23:48;;;;;;;14.27;6.53;;;19.00;99.70;;;;;;5059914;28;20548;-69
2021/07/17 10:26:16;;;;;;;13.07;5.63;;;19.00;99.70;;;;;;5057272;28;20475;-69
2021/07/17 10:28:44;;;;;;;15.70;5.20;;;19.00;99.70;;;;;;5059385;28;20848;-69
2021/07/17 10:31:11;;;;;;;15.27;5.67;;;19.10;99.70;;;;;;5057777;28;20479;-68
2021/07/17 10:33:37;;;;;;;16.47;5.70;;;19.20;99.70;;;;;;5058190;28;20443;-69
2021/07/17 10:36:10;;;;;;;11.43;4.87;;;19.20;99.70;;;;;;5057829;28;20473;-69
2021/07/17 10:38:42;;;;;;;14.33;5.23;;;19.40;99.70;;;;;;5056056;28;20524;-69
2021/07/17 10:41:11;;;;;;;11.47;5.50;;;19.40;99.70;;;;;;5057529;28;20452;-70
2021/07/17 10:43:39;;;;;;;12.57;4.93;;;19.50;99.70;;;;;;5053188;28;20458;-68
2021/07/17 10:46:27;;;;;;;14.07;6.20;;;19.50;99.70;;;;;;5055761;28;20471;-69
2021/07/17 10:48:56;;;;;;;8.63;4.40;;;19.60;99.70;;;;;;5059149;28;20439;-69
2021/07/17 10:51:33;;;;;;;10.43;4.87;;;19.70;99.70;;;;;;5058441;28;20621;-68
2021/07/17 10:54:03;;;;;;;11.43;4.47;;;19.90;99.70;;;;;;5051306;28;20960;-68
2021/07/17 10:56:41;;;;;;;16.70;5.50;;;20.10;99.70;;;;;;5058506;28;21004;-67
2021/07/17 10:59:41;;;;;;;13.07;4.93;;;20.00;99.70;;;;;;5056252;28;20559;-67
2021/07/17 11:02:11;;;;;;;13.70;6.10;;;20.20;99.70;;;;;;5056660;28;20504;-67
2021/07/17 11:04:54;;;;;;;12.67;5.47;;;20.20;99.70;;;;;;5053276;28;20443;-68
2021/07/17 11:07:39;;;;;;;16.10;5.63;;;20.20;99.70;;;;;;5054784;28;20475;-69
2021/07/17 11:10:20;;;;;;;11.83;5.60;;;20.30;99.70;;;;;;5054484;28;20526;-69
2021/07/17 11:12:58;;;;;;;12.60;5.10;;;20.30;99.70;;;;;;5054736;28;20493;-68
2021/07/17 11:15:46;;;;;;;10.57;5.53;;;20.30;99.70;;;;;;5049562;28;20459;-69
2021/07/17 11:18:39;;;;;;;11.80;5.70;;;20.40;99.70;;;;;;5051897;28;20475;-68
2021/07/17 11:21:08;;;;;;;13.53;5.40;;;20.30;99.70;;;;;;5050778;28;20534;-68
2021/07/17 11:23:38;;;;;;;11.60;5.67;;;20.00;99.70;;;;;;5053582;28;20458;-68
2021/07/17 11:26:07;;;;;;;12.57;5.27;;;20.00;99.70;;;;;;5048411;28;20566;-68
2021/07/17 11:29:02;;;;;;;12.93;5.30;;;20.00;99.70;;;;;;5057987;28;20443;-68
2021/07/17 11:31:43;;;;;;;15.07;5.60;;;19.90;99.70;;;;;;5055138;28;20443;-68
2021/07/17 11:34:38;;;;;;;13.30;5.73;;;19.90;99.70;;;;;;5052006;28;20669;-68
2021/07/17 11:37:08;;;;;;;11.87;5.40;;;19.90;99.70;;;;;;5048025;28;20467;-68
2021/07/17 11:39:39;;;;;;;13.63;6.23;;;20.00;99.70;;;;;;5053488;28;20474;-68
2021/07/17 11:42:07;;;;;;;13.60;5.83;;;20.00;99.70;;;;;;5061028;28;20548;-68
2021/07/17 11:44:36;;;;;;;16.37;5.70;;;20.00;99.70;;;;;;5053229;28;20443;-68
2021/07/17 11:47:05;;;;;;;13.20;5.40;;;20.00;99.70;;;;;;5056665;28;20472;-68
2021/07/17 11:49:35;;;;;;;14.40;6.90;;;20.00;99.70;;;;;;5055257;28;20446;-68
2021/07/17 11:52:05;;;;;;;16.60;5.20;;;20.00;99.70;;;;;;5056530;28;20547;-68
2021/07/17 11:54:33;;;;;;;12.47;5.63;;;20.00;99.70;;;;;;5054380;28;20841;-68
2021/07/17 11:57:10;;;;;;;13.67;5.67;;;20.00;99.70;;;;;;5057728;28;20477;-68
2021/07/17 11:59:39;;;;;;;13.73;5.27;;;20.00;99.70;;;;;;5055714;28;20529;-68
2021/07/17 12:02:10;;;;;;;13.70;5.87;;;20.00;99.70;;;;;;5057219;28;20932;-68
2021/07/17 12:04:40;;;;;;;13.30;5.77;;;19.90;99.70;;;;;;5053877;28;20835;-68
2021/07/17 12:07:11;;;;;;;13.67;5.73;;;19.90;99.70;;;;;;5057241;28;20832;-68
2021/07/17 12:09:41;;;;;;;11.90;5.10;;;19.80;99.70;;;;;;5055155;28;20445;-68
2021/07/17 12:12:27;;;;;;;9.90;5.63;;;19.80;99.70;;;;;;5052859;28;20463;-68
2021/07/17 12:15:09;;;;;;;12.93;5.20;;;19.80;99.70;;;;;;5056273;28;20459;-68
2021/07/17 12:17:38;;;;;;;16.60;5.77;;;19.80;99.70;;;;;;5058791;28;20517;-68
2021/07/17 12:20:17;;;;;;;11.47;5.30;;;19.80;99.70;;;;;;5061311;28;20541;-68
2021/07/17 12:23:03;;;;;;;13.70;5.63;;;19.80;99.70;;;;;;5058228;28;20898;-68
2021/07/17 12:25:32;;;;;;;12.67;5.30;;;19.80;99.70;;;;;;5054959;28;20466;-68
2021/07/17 12:28:05;;;;;;;13.93;6.07;;;19.80;99.70;;;;;;5062417;28;20980;-68
2021/07/17 12:30:34;;;;;;;13.17;5.20;;;19.80;99.70;;;;;;5061632;28;20538;-68
2021/07/17 12:33:11;;;;;;;12.27;5.60;;;19.90;99.70;;;;;;5065956;28;20908;-67
2021/07/17 12:35:38;;;;;;;16.13;5.90;;;19.90;99.70;;;;;;5051039;28;20471;-68
2021/07/17 12:38:16;;;;;;;11.43;4.93;;;19.90;99.70;;;;;;5052353;28;20448;-68
2021/07/17 12:40:52;;;;;;;16.00;6.13;;;19.90;99.70;;;;;;5051097;28;20986;-68
2021/07/17 12:43:23;;;;;;;14.40;5.70;;;20.00;99.70;;;;;;5051687;28;20965;-67
2021/07/17 12:46:08;;;;;;;16.53;6.23;;;20.00;99.70;;;;;;5062114;28;20989;-68